createdAt,value
2023-04-23T00:02:03.236Z,6.52
2023-04-23T00:04:35.041Z,6.46
2023-04-23T00:07:03.443Z,6.40
2023-04-23T00:09:33.398Z,6.15
2023-04-23T00:12:01.929Z,6.29
2023-04-23T00:14:29.096Z,6.19
2023-04-23T00:16:56.023Z,6.25
2023-04-23T00:19:22.760Z,6.17
2023-04-23T00:21:49.442Z,6.05
2023-04-23T00:24:16.185Z,6.06
2023-04-23T00:26:42.809Z,6.01
2023-04-23T00:29:09.483Z,6.01
2023-04-23T00:31:36.241Z,5.98
2023-04-23T00:34:03.437Z,5.77
2023-04-23T00:36:30.223Z,5.88
2023-04-23T00:38:56.921Z,6.01
2023-04-23T00:41:23.786Z,5.93
2023-04-23T00:43:52.778Z,5.98
2023-04-23T00:46:19.458Z,5.98
2023-04-23T00:48:47.151Z,5.93
2023-04-23T00:51:13.915Z,5.91
2023-04-23T00:53:40.561Z,6.05
2023-04-23T00:56:09.042Z,6.00
2023-04-23T00:58:36.280Z,6.08
2023-04-23T01:01:05.046Z,6.12
2023-04-23T01:03:32.911Z,6.12
2023-04-23T01:06:00.161Z,6.14
2023-04-23T01:08:27.188Z,6.17
2023-04-23T01:10:54.830Z,5.88
2023-04-23T01:13:22.523Z,6.11
2023-04-23T01:15:49.748Z,5.88
2023-04-23T01:18:16.440Z,5.84
2023-04-23T01:20:43.821Z,5.88
2023-04-23T01:23:11.150Z,5.80
2023-04-23T01:25:38.157Z,5.95
2023-04-23T01:28:08.273Z,5.97
2023-04-23T01:30:35.801Z,6.03
2023-04-23T01:33:04.509Z,6.01
2023-04-23T01:35:32.028Z,6.10
2023-04-23T01:38:02.622Z,5.87
2023-04-23T01:40:29.672Z,5.63
2023-04-23T01:42:57.730Z,6.03
2023-04-23T01:45:24.732Z,6.09
2023-04-23T01:47:51.783Z,6.12
2023-04-23T01:50:18.577Z,6.15
2023-04-23T01:52:46.461Z,6.07
2023-04-23T01:55:14.182Z,6.06
2023-04-23T01:57:41.006Z,6.15
2023-04-23T02:00:12.308Z,6.20
2023-04-23T02:02:41.201Z,6.19
2023-04-23T02:05:18.772Z,6.16
2023-04-23T02:07:47.091Z,6.05
2023-04-23T02:10:14.289Z,6.23
2023-04-23T02:12:41.730Z,6.15
2023-04-23T02:15:10.436Z,5.76
2023-04-23T02:17:37.584Z,5.82
2023-04-23T02:20:04.914Z,5.82
2023-04-23T02:22:31.716Z,5.54
2023-04-23T02:24:59.134Z,5.57
2023-04-23T02:27:25.956Z,5.66
2023-04-23T02:29:53.557Z,5.30
2023-04-23T02:32:20.627Z,5.29
2023-04-23T02:34:47.321Z,5.22
2023-04-23T02:37:14.170Z,5.39
2023-04-23T02:39:40.797Z,5.15
2023-04-23T02:42:07.455Z,5.32
2023-04-23T02:44:34.109Z,5.42
2023-04-23T02:47:01.094Z,5.24
2023-04-23T02:49:27.921Z,5.38
2023-04-23T02:51:54.524Z,5.35
2023-04-23T02:54:21.328Z,5.30
2023-04-23T02:56:48.046Z,5.28
2023-04-23T02:59:14.694Z,5.16
2023-04-23T03:01:41.500Z,5.22
2023-04-23T03:04:08.667Z,5.07
2023-04-23T03:06:35.870Z,5.25
2023-04-23T03:09:02.891Z,4.95
2023-04-23T03:11:29.488Z,5.17
2023-04-23T03:13:56.257Z,5.11
2023-04-23T03:16:22.998Z,5.13
2023-04-23T03:18:50.003Z,5.12
2023-04-23T03:21:17.019Z,5.15
2023-04-23T03:23:43.725Z,5.12
2023-04-23T03:26:10.519Z,5.02
2023-04-23T03:28:37.215Z,5.22
2023-04-23T03:31:03.891Z,5.26
2023-04-23T03:33:30.917Z,5.30
2023-04-23T03:35:57.506Z,5.23
2023-04-23T03:38:24.104Z,5.51
2023-04-23T03:40:50.929Z,5.37
2023-04-23T03:43:17.669Z,5.37
2023-04-23T03:45:45.365Z,5.40
2023-04-23T03:48:11.983Z,5.51
2023-04-23T03:50:40.567Z,5.55
2023-04-23T03:53:08.219Z,5.54
2023-04-23T03:55:35.033Z,5.52
2023-04-23T03:58:03.418Z,5.30
2023-04-23T04:00:30.362Z,5.38
2023-04-23T04:02:57.384Z,5.47
2023-04-23T04:05:24.320Z,5.33
2023-04-23T04:07:51.079Z,5.38
2023-04-23T04:10:17.875Z,5.31
2023-04-23T04:12:47.755Z,5.23
2023-04-23T04:15:15.310Z,5.50
2023-04-23T04:17:42.027Z,5.40
2023-04-23T04:20:10.223Z,5.63
2023-04-23T04:22:36.957Z,5.69
2023-04-23T04:25:05.281Z,5.76
2023-04-23T04:27:34.933Z,5.80
2023-04-23T04:30:02.539Z,5.79
2023-04-23T04:32:29.187Z,5.95
2023-04-23T04:34:55.844Z,6.13
2023-04-23T04:37:22.504Z,6.27
2023-04-23T04:39:49.361Z,6.51
2023-04-23T04:42:16.747Z,6.38
2023-04-23T04:44:44.050Z,6.47
2023-04-23T04:47:10.935Z,6.60
2023-04-23T04:49:38.292Z,6.82
2023-04-23T04:52:05.192Z,7.34
2023-04-23T04:54:31.968Z,7.92
2023-04-23T04:56:58.697Z,8.27
2023-04-23T04:59:25.293Z,9.23
2023-04-23T05:01:52.011Z,9.73
2023-04-23T05:04:18.899Z,9.91
2023-04-23T05:06:45.873Z,10.07
2023-04-23T05:09:12.537Z,10.33
2023-04-23T05:11:40.460Z,10.77
2023-04-23T05:14:07.070Z,11.43
2023-04-23T05:16:34.637Z,11.73
2023-04-23T05:19:01.441Z,11.92
2023-04-23T05:21:28.410Z,12.15
2023-04-23T05:23:55.578Z,12.32
2023-04-23T05:26:22.327Z,11.88
2023-04-23T05:28:49.160Z,11.79
2023-04-23T05:31:16.103Z,11.48
2023-04-23T05:33:50.010Z,11.44
2023-04-23T05:36:18.195Z,11.18
2023-04-23T05:38:45.057Z,11.42
2023-04-23T05:41:11.776Z,11.49
2023-04-23T05:43:38.499Z,11.71
2023-04-23T05:46:07.559Z,11.73
2023-04-23T05:48:34.904Z,11.54
2023-04-23T05:51:01.806Z,11.45
2023-04-23T05:53:28.804Z,11.57
2023-04-23T05:55:55.501Z,11.78
2023-04-23T05:58:22.194Z,12.02
2023-04-23T06:00:49.875Z,12.22
2023-04-23T06:03:16.768Z,12.30
2023-04-23T06:05:43.656Z,12.57
2023-04-23T06:08:10.571Z,12.45
2023-04-23T06:10:37.462Z,12.45
2023-04-23T06:13:04.231Z,12.27
2023-04-23T06:15:30.945Z,12.58
2023-04-23T06:17:57.845Z,12.58
2023-04-23T06:20:25.507Z,12.13
2023-04-23T06:22:52.270Z,11.99
2023-04-23T06:25:19.018Z,11.96
2023-04-23T06:27:45.812Z,11.81
2023-04-23T06:30:12.806Z,11.92
2023-04-23T06:32:39.724Z,11.94
2023-04-23T06:35:08.278Z,12.13
2023-04-23T06:37:35.331Z,12.11
2023-04-23T06:40:02.102Z,12.31
2023-04-23T06:42:28.717Z,12.36
2023-04-23T06:44:55.716Z,12.25
2023-04-23T06:47:22.421Z,12.43
2023-04-23T06:49:49.016Z,12.66
2023-04-23T06:52:15.744Z,12.70
2023-04-23T06:54:42.566Z,12.88
2023-04-23T06:57:09.802Z,13.03
2023-04-23T06:59:36.518Z,13.22
2023-04-23T07:02:04.140Z,13.22
2023-04-23T07:04:31.168Z,12.88
2023-04-23T07:06:58.229Z,13.03
2023-04-23T07:09:24.883Z,12.97
2023-04-23T07:11:51.631Z,12.96
2023-04-23T07:14:18.449Z,13.23
2023-04-23T07:16:45.158Z,12.43
2023-04-23T07:19:11.968Z,12.74
2023-04-23T07:21:38.639Z,13.06
2023-04-23T07:24:07.361Z,12.88
2023-04-23T07:26:34.785Z,13.16
2023-04-23T07:29:02.127Z,13.27
2023-04-23T07:31:28.956Z,13.18
2023-04-23T07:33:56.396Z,13.47
2023-04-23T07:36:23.555Z,13.69
2023-04-23T07:38:51.124Z,13.53
2023-04-23T07:41:18.421Z,13.73
2023-04-23T07:43:45.531Z,14.05
2023-04-23T07:46:12.625Z,13.78
2023-04-23T07:48:39.353Z,13.56
2023-04-23T07:51:06.765Z,13.50
2023-04-23T07:53:33.830Z,13.92
2023-04-23T07:56:01.054Z,14.19
2023-04-23T07:58:27.950Z,14.44
2023-04-23T08:00:54.603Z,14.69
2023-04-23T08:03:22.373Z,14.46
2023-04-23T08:05:49.170Z,14.94
2023-04-23T08:08:17.143Z,14.98
2023-04-23T08:10:43.738Z,14.98
2023-04-23T08:13:11.227Z,15.19
2023-04-23T08:15:37.953Z,15.55
2023-04-23T08:18:05.084Z,15.52
2023-04-23T08:20:35.019Z,15.75
2023-04-23T08:23:01.890Z,15.52
2023-04-23T08:25:28.592Z,15.31
2023-04-23T08:27:55.234Z,14.94
2023-04-23T08:30:21.999Z,14.82
2023-04-23T08:32:55.308Z,14.67
2023-04-23T08:35:23.076Z,14.75
2023-04-23T08:37:50.030Z,14.57
2023-04-23T08:40:17.086Z,14.26
2023-04-23T08:42:51.063Z,14.34
2023-04-23T08:45:18.333Z,14.67
2023-04-23T08:47:45.147Z,14.56
2023-04-23T08:50:14.553Z,14.49
2023-04-23T08:52:46.704Z,14.41
2023-04-23T08:55:15.184Z,14.69
2023-04-23T08:57:42.677Z,14.62
2023-04-23T09:00:11.902Z,14.40
2023-04-23T09:02:44.597Z,14.15
2023-04-23T09:05:12.045Z,13.99
2023-04-23T09:07:38.979Z,13.99
2023-04-23T09:10:07.450Z,14.19
2023-04-23T09:12:38.886Z,14.21
2023-04-23T09:15:12.998Z,14.35
2023-04-23T09:17:41.878Z,14.32
2023-04-23T09:20:09.760Z,14.63
2023-04-23T09:22:47.070Z,14.77
2023-04-23T09:25:16.772Z,14.81
2023-04-23T09:27:43.835Z,15.15
2023-04-23T09:30:11.826Z,15.22
2023-04-23T09:32:41.735Z,14.98
2023-04-23T09:35:11.243Z,14.99
2023-04-23T09:37:43.179Z,15.34
2023-04-23T09:40:13.475Z,15.42
2023-04-23T09:42:40.235Z,15.61
2023-04-23T09:45:09.270Z,15.95
2023-04-23T09:47:39.365Z,15.85
2023-04-23T09:50:07.489Z,15.93
2023-04-23T09:52:38.424Z,16.56
2023-04-23T09:55:05.794Z,16.72
2023-04-23T09:57:41.428Z,17.02
2023-04-23T10:00:19.961Z,17.04
2023-04-23T10:02:49.341Z,16.89
2023-04-23T10:05:24.742Z,17.13
2023-04-23T10:07:52.933Z,17.45
2023-04-23T10:10:20.599Z,17.59
2023-04-23T10:12:54.815Z,17.77
2023-04-23T10:15:23.749Z,17.85
2023-04-23T10:17:51.626Z,17.30
2023-04-23T10:20:22.234Z,16.81
2023-04-23T10:22:49.604Z,17.13
2023-04-23T10:25:16.525Z,17.52
2023-04-23T10:27:53.263Z,17.81
2023-04-23T10:30:22.274Z,17.89
2023-04-23T10:32:50.777Z,17.56
2023-04-23T10:35:17.890Z,17.26
2023-04-23T10:37:47.173Z,17.17
2023-04-23T10:40:16.489Z,17.56
2023-04-23T10:42:44.897Z,17.92
2023-04-23T10:45:24.170Z,17.82
2023-04-23T10:47:55.486Z,17.96
2023-04-23T10:50:24.359Z,17.66
2023-04-23T10:52:54.032Z,17.45
2023-04-23T10:55:23.217Z,17.59
2023-04-23T10:58:04.115Z,17.92
2023-04-23T11:00:51.660Z,18.27
2023-04-23T11:03:32.516Z,18.38
2023-04-23T11:06:04.081Z,18.50
2023-04-23T11:08:34.218Z,17.99
2023-04-23T11:11:03.025Z,17.95
2023-04-23T11:13:30.291Z,18.20
2023-04-23T11:16:23.857Z,18.36
2023-04-23T11:18:56.744Z,18.51
2023-04-23T11:21:23.551Z,18.55
2023-04-23T11:23:50.163Z,18.22
2023-04-23T11:26:20.938Z,18.08
2023-04-23T11:28:52.436Z,18.04
2023-04-23T11:31:20.043Z,18.24
2023-04-23T11:33:46.684Z,18.30
2023-04-23T11:36:15.717Z,18.66
2023-04-23T11:38:42.319Z,18.90
2023-04-23T11:41:08.917Z,18.83
2023-04-23T11:43:36.546Z,18.41
2023-04-23T11:46:03.236Z,18.79
2023-04-23T11:48:29.919Z,18.72
2023-04-23T11:50:56.612Z,18.86
2023-04-23T11:53:24.079Z,19.58
2023-04-23T11:55:51.054Z,19.87
2023-04-23T11:58:18.161Z,19.84
2023-04-23T12:00:44.847Z,19.72
2023-04-23T12:03:13.972Z,19.79
2023-04-23T12:05:42.769Z,19.65
2023-04-23T12:08:28.851Z,19.25
2023-04-23T12:11:00.600Z,19.31
2023-04-23T12:13:32.235Z,19.63
2023-04-23T12:16:01.862Z,19.77
2023-04-23T12:18:40.362Z,19.49
2023-04-23T12:21:12.408Z,19.37
2023-04-23T12:23:40.539Z,18.89
2023-04-23T12:26:11.988Z,18.52
2023-04-23T12:28:59.216Z,18.25
2023-04-23T12:31:28.092Z,18.21
2023-04-23T12:33:59.560Z,18.34
2023-04-23T12:36:29.600Z,18.37
2023-04-23T12:39:16.308Z,18.44
2023-04-23T12:41:43.105Z,18.26
2023-04-23T12:44:09.877Z,18.32
2023-04-23T12:46:36.461Z,18.20
2023-04-23T12:49:03.138Z,18.26
2023-04-23T12:51:29.734Z,18.27
2023-04-23T12:53:56.362Z,18.08
2023-04-23T12:56:23.020Z,18.06
2023-04-23T12:58:49.697Z,18.24
2023-04-23T13:01:16.513Z,18.41
2023-04-23T13:03:43.453Z,18.53
2023-04-23T13:06:10.091Z,18.32
2023-04-23T13:08:36.847Z,18.35
2023-04-23T13:11:03.562Z,18.49
2023-04-23T13:13:30.417Z,18.39
2023-04-23T13:15:57.364Z,18.17
2023-04-23T13:18:24.085Z,17.96
2023-04-23T13:20:50.707Z,17.93
2023-04-23T13:23:17.270Z,18.10
2023-04-23T13:25:43.908Z,17.84
2023-04-23T13:28:10.671Z,17.80
2023-04-23T13:30:37.269Z,18.20
2023-04-23T13:33:04.091Z,18.49
2023-04-23T13:35:30.922Z,18.58
2023-04-23T13:37:59.137Z,18.33
2023-04-23T13:40:25.826Z,18.34
2023-04-23T13:42:55.007Z,18.37
2023-04-23T13:45:21.772Z,18.62
2023-04-23T13:47:48.472Z,18.68
2023-04-23T13:50:15.264Z,18.55
2023-04-23T13:52:42.216Z,18.27
2023-04-23T13:55:09.970Z,18.09
2023-04-23T13:57:38.168Z,18.44
2023-04-23T14:00:05.572Z,18.06
2023-04-23T14:02:32.317Z,17.80
2023-04-23T14:04:58.976Z,17.69
2023-04-23T14:07:25.800Z,17.71
2023-04-23T14:09:52.959Z,18.02
2023-04-23T14:12:20.383Z,18.23
2023-04-23T14:14:48.169Z,18.37
2023-04-23T14:17:14.954Z,18.49
2023-04-23T14:19:41.793Z,18.34
2023-04-23T14:22:08.688Z,18.52
2023-04-23T14:24:40.365Z,18.55
2023-04-23T14:27:06.980Z,18.14
2023-04-23T14:29:52.565Z,17.59
2023-04-23T14:32:19.152Z,17.64
2023-04-23T14:34:45.870Z,17.86
2023-04-23T14:37:13.028Z,17.91
2023-04-23T14:39:41.219Z,17.62
2023-04-23T14:42:08.104Z,17.52
2023-04-23T14:44:34.807Z,17.45
2023-04-23T14:47:01.626Z,17.56
2023-04-23T14:49:28.271Z,17.57
2023-04-23T14:51:54.977Z,17.40
2023-04-23T14:54:22.812Z,17.35
2023-04-23T14:56:50.998Z,17.28
2023-04-23T14:59:18.010Z,17.04
2023-04-23T15:01:45.012Z,17.05
2023-04-23T15:04:11.902Z,17.09
2023-04-23T15:06:40.513Z,17.21
2023-04-23T15:09:07.189Z,17.25
2023-04-23T15:11:33.945Z,17.07
2023-04-23T15:14:30.916Z,17.22
2023-04-23T15:16:57.664Z,17.18
2023-04-23T15:19:24.778Z,17.34
2023-04-23T15:21:51.426Z,17.20
2023-04-23T15:24:18.107Z,17.22
2023-04-23T15:26:48.899Z,17.14
2023-04-23T15:29:15.778Z,17.13
2023-04-23T15:31:42.606Z,17.00
2023-04-23T15:34:09.698Z,16.99
2023-04-23T15:36:37.730Z,16.94
2023-04-23T15:39:04.875Z,17.03
2023-04-23T15:41:31.633Z,16.95
2023-04-23T15:43:58.589Z,16.95
2023-04-23T15:46:25.690Z,17.05
2023-04-23T15:48:52.320Z,17.10
2023-04-23T15:51:19.100Z,17.19
2023-04-23T15:53:45.870Z,17.04
2023-04-23T15:56:12.545Z,17.00
2023-04-23T15:58:39.175Z,17.08
2023-04-23T16:01:07.499Z,17.16
2023-04-23T16:03:34.611Z,17.18
2023-04-23T16:06:01.917Z,17.05
2023-04-23T16:08:29.070Z,16.99
2023-04-23T16:10:57.137Z,17.03
2023-04-23T16:13:24.956Z,16.90
2023-04-23T16:15:51.618Z,16.73
2023-04-23T16:18:18.338Z,16.60
2023-04-23T16:20:45.055Z,16.58
2023-04-23T16:23:11.852Z,16.57
2023-04-23T16:25:38.900Z,16.52
2023-04-23T16:28:06.209Z,16.36
2023-04-23T16:30:32.932Z,16.29
2023-04-23T16:32:59.670Z,16.42
2023-04-23T16:35:26.625Z,16.31
2023-04-23T16:37:53.376Z,16.20
2023-04-23T16:40:21.130Z,16.13
2023-04-23T16:42:48.913Z,16.04
2023-04-23T16:45:15.901Z,16.05
2023-04-23T16:47:43.751Z,16.00
2023-04-23T16:50:11.088Z,16.07
2023-04-23T16:52:37.783Z,15.92
2023-04-23T16:55:05.644Z,15.83
2023-04-23T16:59:41.748Z,15.71
2023-04-23T17:02:08.686Z,15.64
2023-04-23T17:04:35.795Z,15.62
2023-04-23T17:07:02.662Z,15.50
2023-04-23T17:09:33.117Z,15.52
2023-04-23T17:12:00.085Z,15.40
2023-04-23T17:14:27.824Z,15.45
2023-04-23T17:16:54.472Z,15.34
2023-04-23T17:19:21.246Z,15.21
2023-04-23T17:21:48.007Z,15.11
2023-04-23T17:24:14.698Z,15.05
2023-04-23T17:26:41.644Z,15.02
2023-04-23T17:29:08.471Z,14.99
2023-04-23T17:31:37.686Z,14.88
2023-04-23T17:34:05.299Z,14.83
2023-04-23T17:36:32.247Z,14.77
2023-04-23T17:38:59.290Z,14.74
2023-04-23T17:41:26.230Z,14.73
2023-04-23T17:43:53.376Z,14.60
2023-04-23T17:46:20.286Z,14.59
2023-04-23T17:48:47.299Z,14.48
2023-04-23T17:51:14.112Z,14.42
2023-04-23T17:53:42.610Z,14.38
2023-04-23T17:56:10.356Z,14.34
2023-04-23T17:58:38.410Z,14.28
2023-04-23T18:01:07.285Z,14.25
2023-04-23T18:03:34.414Z,14.17
2023-04-23T18:06:01.522Z,14.18
2023-04-23T18:08:28.629Z,14.13
2023-04-23T18:10:55.608Z,13.99
2023-04-23T18:13:22.639Z,14.00
2023-04-23T18:15:50.370Z,13.94
2023-04-23T18:18:18.302Z,13.84
2023-04-23T18:20:46.442Z,13.83
2023-04-23T18:23:14.421Z,13.77
2023-04-23T18:25:42.242Z,13.70
2023-04-23T18:28:09.550Z,13.62
2023-04-23T18:30:38.277Z,13.53
2023-04-23T18:33:25.198Z,13.64
2023-04-23T18:35:56.529Z,13.57
2023-04-23T18:38:36.315Z,13.52
2023-04-23T18:41:04.825Z,13.44
2023-04-23T18:43:32.440Z,13.37
2023-04-23T18:45:59.582Z,13.34
2023-04-23T18:48:41.673Z,13.32
2023-04-23T18:51:23.096Z,13.33
2023-04-23T18:53:50.054Z,13.25
2023-04-23T18:56:17.103Z,13.20
2023-04-23T18:58:44.147Z,13.13
2023-04-23T19:01:11.205Z,13.10
2023-04-23T19:03:38.470Z,12.96
2023-04-23T19:06:08.003Z,12.80
2023-04-23T19:08:35.899Z,12.72
2023-04-23T19:11:03.781Z,12.62
2023-04-23T19:13:30.908Z,12.29
2023-04-23T19:15:57.821Z,12.49
2023-04-23T19:18:24.767Z,12.46
2023-04-23T19:20:52.945Z,12.42
2023-04-23T19:23:20.484Z,12.38
2023-04-23T19:25:48.248Z,12.29
2023-04-23T19:28:15.198Z,12.19
2023-04-23T19:30:42.227Z,12.23
2023-04-23T19:33:09.229Z,12.13
2023-04-23T19:35:39.361Z,12.14
2023-04-23T19:38:07.131Z,12.05
2023-04-23T19:40:34.237Z,11.97
2023-04-23T19:43:01.472Z,11.93
2023-04-23T19:45:30.216Z,11.84
2023-04-23T19:47:57.572Z,11.81
2023-04-23T19:50:26.420Z,11.80
2023-04-23T19:52:53.481Z,11.77
2023-04-23T19:55:22.434Z,11.73
2023-04-23T19:57:49.093Z,11.67
2023-04-23T20:00:17.023Z,11.65
2023-04-23T20:02:44.180Z,11.61
2023-04-23T20:05:11.483Z,11.55
2023-04-23T20:07:39.083Z,11.42
2023-04-23T20:10:07.093Z,11.39
2023-04-23T20:12:34.972Z,11.41
2023-04-23T20:15:02.275Z,11.44
2023-04-23T20:17:30.246Z,11.36
2023-04-23T20:20:33.673Z,11.32
2023-04-23T20:23:00.936Z,10.95
2023-04-23T20:25:43.442Z,11.23
2023-04-23T20:30:48.574Z,10.63
2023-04-23T20:33:16.255Z,11.26
2023-04-23T20:35:43.138Z,10.96
2023-04-23T20:38:10.339Z,10.89
2023-04-23T20:40:38.655Z,10.84
2023-04-23T20:43:05.537Z,11.03
2023-04-23T20:45:34.258Z,10.99
2023-04-23T20:48:03.401Z,10.96
2023-04-23T20:50:31.272Z,11.06
2023-04-23T20:52:58.109Z,10.61
2023-04-23T20:55:24.843Z,10.85
2023-04-23T20:57:52.017Z,10.84
2023-04-23T21:00:20.512Z,10.86
2023-04-23T21:02:47.436Z,10.67
2023-04-23T21:05:14.551Z,10.90
2023-04-23T21:07:43.310Z,10.87
2023-04-23T21:10:11.025Z,10.71
2023-04-23T21:12:38.261Z,10.38
2023-04-23T21:15:05.630Z,10.61
2023-04-23T21:17:33.775Z,10.56
2023-04-23T21:20:00.910Z,10.07
2023-04-23T21:22:27.851Z,10.23
2023-04-23T21:24:54.840Z,10.16
2023-04-23T21:27:22.184Z,10.38
2023-04-23T21:29:49.683Z,10.42
2023-04-23T21:32:16.904Z,10.40
2023-04-23T21:34:43.752Z,10.54
2023-04-23T21:37:10.697Z,10.57
2023-04-23T21:39:37.854Z,10.57
2023-04-23T21:42:05.524Z,10.62
2023-04-23T21:44:33.038Z,10.82
2023-04-23T21:46:59.900Z,10.70
2023-04-23T21:49:27.823Z,10.76
2023-04-23T21:51:54.833Z,10.85
2023-04-23T21:54:21.675Z,10.92
2023-04-23T21:56:48.404Z,10.78
2023-04-23T21:59:15.089Z,10.57
2023-04-23T22:01:42.078Z,10.39
2023-04-23T22:04:08.884Z,9.99
2023-04-23T22:06:35.665Z,9.89
2023-04-23T22:09:02.847Z,9.74
2023-04-23T22:11:31.443Z,9.73
2023-04-23T22:13:59.219Z,9.84
2023-04-23T22:16:29.142Z,9.71
2023-04-23T22:19:00.618Z,9.67
2023-04-23T22:21:28.368Z,9.90
2023-04-23T22:23:56.028Z,9.86
2023-04-23T22:26:22.991Z,10.00
2023-04-23T22:28:49.961Z,9.91
2023-04-23T22:31:17.441Z,10.12
2023-04-23T22:33:44.359Z,10.14
2023-04-23T22:36:11.521Z,9.98
2023-04-23T22:38:38.661Z,10.15
2023-04-23T22:41:06.204Z,9.95
2023-04-23T22:43:33.142Z,10.24
2023-04-23T22:46:00.355Z,10.28
2023-04-23T22:48:28.039Z,10.32
2023-04-23T22:50:55.749Z,10.18
2023-04-23T22:53:22.454Z,10.22
2023-04-23T22:55:49.862Z,10.46
2023-04-23T22:58:20.490Z,10.50
2023-04-23T23:00:52.449Z,10.45
2023-04-23T23:03:19.965Z,10.76
2023-04-23T23:05:51.759Z,10.78
2023-04-23T23:08:18.789Z,10.17
2023-04-23T23:10:46.131Z,10.60
2023-04-23T23:13:13.087Z,10.67
2023-04-23T23:15:40.363Z,10.39
2023-04-23T23:18:11.816Z,10.55
2023-04-23T23:20:40.438Z,10.57
2023-04-23T23:23:07.128Z,10.60
2023-04-23T23:25:38.510Z,10.42
2023-04-23T23:28:05.611Z,10.50
2023-04-23T23:30:32.779Z,10.42
2023-04-23T23:32:59.776Z,10.41
2023-04-23T23:35:26.653Z,10.13
2023-04-23T23:37:53.392Z,10.38
2023-04-23T23:40:20.168Z,10.44
2023-04-23T23:42:47.715Z,10.26
2023-04-23T23:45:14.567Z,10.46
2023-04-23T23:47:41.727Z,10.47
2023-04-23T23:50:08.978Z,10.17
2023-04-23T23:52:35.866Z,10.14
2023-04-23T23:55:02.866Z,10.05
2023-04-23T23:57:29.719Z,10.21
2023-04-23T23:59:57.017Z,9.88
